createdAt,value
2018-09-14T00:03:25.330Z,8.65
2018-09-14T00:08:29.985Z,10.72
2018-09-14T00:13:34.520Z,11.85
2018-09-14T00:18:39.641Z,10.72
2018-09-14T00:23:44.419Z,10.45
2018-09-14T00:28:48.838Z,8.65
2018-09-14T00:33:53.377Z,9.73
2018-09-14T00:38:57.893Z,9.88
2018-09-14T00:44:03.765Z,11.30
2018-09-14T00:49:08.388Z,12.15
2018-09-14T00:54:12.845Z,10.00
2018-09-14T00:59:17.400Z,10.72
2018-09-14T01:04:22.647Z,11.90
2018-09-14T01:09:29.586Z,11.63
2018-09-14T01:14:34.050Z,13.30
2018-09-14T01:19:38.544Z,12.73
2018-09-14T01:24:43.207Z,11.83
2018-09-14T01:29:47.695Z,12.13
2018-09-14T01:34:52.154Z,14.55
2018-09-14T01:39:57.536Z,12.20
2018-09-14T01:45:02.166Z,13.72
2018-09-14T01:50:07.529Z,14.80
2018-09-14T01:55:12.165Z,14.47
2018-09-14T02:00:16.729Z,10.68
2018-09-14T02:05:21.829Z,12.03
2018-09-14T02:10:26.488Z,11.97
2018-09-14T02:15:31.116Z,11.33
2018-09-14T02:20:35.632Z,11.65
2018-09-14T02:25:40.076Z,11.20
2018-09-14T02:30:44.691Z,12.10
2018-09-14T02:35:49.272Z,11.88
2018-09-14T02:40:53.825Z,10.58
2018-09-14T02:45:58.554Z,12.50
2018-09-14T02:51:03.013Z,13.40
2018-09-14T02:56:07.639Z,12.45
2018-09-14T03:01:12.133Z,10.72
2018-09-14T03:06:17.020Z,18.12
2018-09-14T03:11:21.622Z,14.75
2018-09-14T03:16:26.251Z,12.93
2018-09-14T03:21:30.688Z,11.48
2018-09-14T03:26:35.324Z,11.28
2018-09-14T03:31:39.949Z,13.65
2018-09-14T03:36:44.360Z,13.13
2018-09-14T03:41:49.314Z,12.37
2018-09-14T03:46:53.892Z,11.70
2018-09-14T03:51:58.448Z,10.23
2018-09-14T03:57:05.540Z,9.55
2018-09-14T04:02:09.884Z,10.50
2018-09-14T04:07:14.445Z,10.05
2018-09-14T04:12:19.432Z,13.25
2018-09-14T04:17:24.011Z,9.33
2018-09-14T04:22:28.458Z,10.15
2018-09-14T04:27:32.991Z,12.20
2018-09-14T04:32:37.492Z,12.35
2018-09-14T04:37:41.920Z,10.93
2018-09-14T04:42:46.339Z,11.57
2018-09-14T04:47:50.925Z,10.75
2018-09-14T04:52:55.574Z,11.03
2018-09-14T04:58:00.903Z,10.58
2018-09-14T05:03:06.643Z,10.85
2018-09-14T05:08:11.190Z,11.65
2018-09-14T05:13:15.896Z,13.20
2018-09-14T05:18:21.912Z,12.55
2018-09-14T05:23:29.249Z,10.13
2018-09-14T05:28:34.186Z,9.03
2018-09-14T05:33:38.701Z,10.93
2018-09-14T05:38:46.325Z,11.90
2018-09-14T05:43:50.881Z,10.72
2018-09-14T05:48:55.811Z,8.73
2018-09-14T05:54:00.282Z,8.58
2018-09-14T05:59:05.189Z,12.70
2018-09-14T06:04:09.682Z,10.80
2018-09-14T06:09:14.327Z,8.95
2018-09-14T06:14:18.778Z,10.70
2018-09-14T06:19:23.348Z,10.43
2018-09-14T06:24:27.869Z,10.08
2018-09-14T06:29:32.490Z,7.20
2018-09-14T06:34:37.063Z,8.80
2018-09-14T06:39:42.795Z,9.35
2018-09-14T06:44:47.194Z,9.35
2018-09-14T06:49:51.691Z,8.75
2018-09-14T06:54:56.367Z,8.83
2018-09-14T07:00:01.750Z,7.55
2018-09-14T07:05:07.119Z,8.83
2018-09-14T07:10:11.681Z,13.83
2018-09-14T07:15:16.682Z,7.60
2018-09-14T07:20:21.272Z,7.17
2018-09-14T07:25:26.881Z,7.97
2018-09-14T07:30:31.508Z,7.33
2018-09-14T07:35:36.537Z,7.47
2018-09-14T07:40:41.115Z,7.00
2018-09-14T07:45:45.589Z,7.25
2018-09-14T07:50:51.235Z,6.20
2018-09-14T07:55:55.822Z,5.62
2018-09-14T08:01:00.249Z,4.97
2018-09-14T08:06:05.680Z,5.70
2018-09-14T08:11:10.141Z,6.67
2018-09-14T08:16:15.853Z,5.28
2018-09-14T08:21:20.564Z,5.80
2018-09-14T08:26:24.932Z,6.62
2018-09-14T08:31:29.301Z,7.22
2018-09-14T08:36:34.225Z,6.85
2018-09-14T08:41:39.043Z,6.55
2018-09-14T08:46:43.526Z,8.18
2018-09-14T08:51:47.989Z,6.75
2018-09-14T08:56:52.602Z,6.12
2018-09-14T09:01:57.194Z,5.45
2018-09-14T09:07:01.798Z,7.37
2018-09-14T09:12:06.378Z,5.30
2018-09-14T09:17:11.011Z,4.17
2018-09-14T09:22:15.894Z,4.72
2018-09-14T09:27:20.326Z,4.47
2018-09-14T09:32:25.417Z,3.92
2018-09-14T09:42:12.660Z,4.22
2018-09-14T09:47:23.979Z,3.33
2018-09-14T09:52:29.213Z,4.40
2018-09-14T09:57:34.039Z,4.42
2018-09-14T10:02:43.783Z,4.83
2018-09-14T10:07:49.356Z,6.60
2018-09-14T10:12:54.126Z,3.75
2018-09-14T10:17:58.646Z,4.30
2018-09-14T10:23:03.227Z,4.40
2018-09-14T10:28:07.873Z,4.92
2018-09-14T10:33:13.104Z,7.60
2018-09-14T10:38:18.925Z,3.17
2018-09-14T10:43:23.678Z,4.62
2018-09-14T10:48:28.647Z,4.08
2018-09-14T10:53:34.076Z,3.65
2018-09-14T10:58:44.080Z,4.25
2018-09-14T11:03:48.639Z,4.42
2018-09-14T11:08:52.880Z,3.77
2018-09-14T11:13:58.010Z,4.37
2018-09-14T11:19:02.364Z,3.98
2018-09-14T11:24:07.963Z,3.70
2018-09-14T11:29:13.058Z,4.00
2018-09-14T11:34:17.749Z,2.98
2018-09-14T11:39:24.240Z,3.35
2018-09-14T11:44:28.932Z,3.33
2018-09-14T11:49:33.442Z,2.40
2018-09-14T11:54:37.780Z,2.70
2018-09-14T11:59:42.333Z,4.22
2018-09-14T12:04:46.797Z,3.62
2018-09-14T12:09:52.025Z,3.50
2018-09-14T12:14:57.574Z,3.42
2018-09-14T12:20:02.092Z,3.98
2018-09-14T12:25:07.317Z,2.75
2018-09-14T12:30:11.713Z,4.40
2018-09-14T12:35:16.978Z,2.77
2018-09-14T12:40:21.521Z,2.98
2018-09-14T12:45:27.124Z,2.70
2018-09-14T12:50:31.680Z,3.00
2018-09-14T12:55:37.758Z,2.90
2018-09-14T13:00:42.497Z,3.77
2018-09-14T13:05:46.790Z,2.00
2018-09-14T13:10:51.302Z,2.30
2018-09-14T13:15:56.239Z,1.75
2018-09-14T13:21:00.906Z,2.72
2018-09-14T13:26:05.976Z,1.20
2018-09-14T13:31:11.067Z,1.52
2018-09-14T13:36:16.845Z,2.12
2018-09-14T13:41:21.320Z,1.07
2018-09-14T13:46:25.993Z,2.22
2018-09-14T13:51:30.467Z,1.90
2018-09-14T13:56:35.752Z,1.95
2018-09-14T14:06:57.976Z,2.00
2018-09-14T14:12:05.133Z,3.33
2018-09-14T14:17:10.483Z,3.92
2018-09-14T14:22:15.556Z,1.45
2018-09-14T14:27:20.530Z,2.35
2018-09-14T14:32:25.123Z,2.00
2018-09-14T14:37:29.662Z,2.33
2018-09-14T14:42:35.278Z,2.90
2018-09-14T14:47:39.614Z,1.95
2018-09-14T14:52:44.185Z,1.65
2018-09-14T14:57:49.519Z,2.47
2018-09-14T15:02:54.100Z,2.25
2018-09-14T15:07:59.245Z,2.77
2018-09-14T15:13:04.342Z,2.67
2018-09-14T15:18:08.741Z,2.20
2018-09-14T15:23:14.315Z,1.92
2018-09-14T15:28:20.752Z,2.77
2018-09-14T15:33:25.390Z,1.90
2018-09-14T15:38:30.067Z,2.05
2018-09-14T15:43:35.214Z,2.10
2018-09-14T15:48:39.888Z,3.58
2018-09-14T15:53:44.631Z,3.42
2018-09-14T15:58:49.867Z,2.55
2018-09-14T16:03:54.893Z,2.08
2018-09-14T16:08:59.563Z,2.83
2018-09-14T16:14:04.886Z,2.98
2018-09-14T16:19:09.291Z,2.22
2018-09-14T16:24:16.179Z,2.67
2018-09-14T16:29:20.775Z,2.10
2018-09-14T16:34:25.381Z,1.85
2018-09-14T16:39:30.623Z,2.85
2018-09-14T16:44:35.362Z,1.80
2018-09-14T16:49:43.035Z,2.45
2018-09-14T16:55:00.640Z,5.03
2018-09-14T17:00:09.028Z,1.62
2018-09-14T17:05:13.600Z,5.00
2018-09-14T17:10:18.221Z,2.02
2018-09-14T17:15:22.902Z,2.15
2018-09-14T17:20:28.727Z,1.52
2018-09-14T17:25:33.314Z,2.90
2018-09-14T17:30:37.863Z,2.95
2018-09-14T17:35:42.545Z,2.45
2018-09-14T17:40:47.377Z,6.95
2018-09-14T17:45:51.879Z,6.20
2018-09-14T17:50:56.761Z,2.20
2018-09-14T17:56:01.299Z,4.10
2018-09-14T18:01:06.238Z,3.50
2018-09-14T18:06:10.824Z,2.80
2018-09-14T18:11:15.875Z,4.87
2018-09-14T18:16:20.662Z,3.40
2018-09-14T18:21:25.897Z,3.10
2018-09-14T18:26:31.047Z,3.02
2018-09-14T18:37:06.598Z,2.92
2018-09-14T18:42:57.848Z,2.80
2018-09-14T18:48:07.019Z,2.77
2018-09-14T18:53:11.874Z,3.92
2018-09-14T18:58:17.534Z,4.90
2018-09-14T19:03:22.277Z,4.05
2018-09-14T19:08:27.421Z,11.00
2018-09-14T19:13:32.115Z,6.30
2018-09-14T19:18:36.737Z,3.92
2018-09-14T19:23:41.338Z,4.03
2018-09-14T19:28:46.590Z,5.42
2018-09-14T19:33:51.550Z,3.67
2018-09-14T19:38:56.643Z,6.45
2018-09-14T19:44:01.627Z,6.40
2018-09-14T19:49:10.710Z,6.12
2018-09-14T19:54:16.975Z,4.15
2018-09-14T19:59:22.325Z,7.00
2018-09-14T20:04:27.136Z,5.22
2018-09-14T20:20:45.997Z,5.15
2018-09-14T20:25:54.032Z,4.17
2018-09-14T20:30:58.779Z,5.95
2018-09-14T20:36:03.415Z,7.47
2018-09-14T20:41:08.608Z,6.05
2018-09-14T20:46:13.849Z,5.90
2018-09-14T20:51:19.594Z,6.12
2018-09-14T20:56:25.804Z,7.00
2018-09-14T21:01:34.424Z,10.15
2018-09-14T21:06:39.481Z,8.73
2018-09-14T21:11:49.556Z,7.55
2018-09-14T21:16:54.800Z,8.33
2018-09-14T21:22:00.704Z,10.20
2018-09-14T21:27:05.415Z,8.85
2018-09-14T21:32:10.788Z,7.80
2018-09-14T21:37:15.398Z,10.55
2018-09-14T21:42:19.986Z,7.53
2018-09-14T21:47:24.559Z,8.43
2018-09-14T21:52:29.601Z,7.70
2018-09-14T21:57:34.220Z,8.33
2018-09-14T22:02:38.821Z,9.05
2018-09-14T22:07:44.127Z,8.73
2018-09-14T22:12:49.053Z,8.90
2018-09-14T22:17:54.138Z,8.43
2018-09-14T22:22:58.827Z,9.75
2018-09-14T22:28:03.475Z,8.10
2018-09-14T22:33:08.193Z,11.43
2018-09-14T22:38:12.874Z,8.25
2018-09-14T22:43:17.859Z,10.80
2018-09-14T22:48:22.587Z,8.48
2018-09-14T22:53:27.799Z,8.45
2018-09-14T22:58:32.163Z,8.08
2018-09-14T23:03:37.327Z,11.85
2018-09-14T23:08:41.962Z,8.48
2018-09-14T23:13:46.898Z,8.70
2018-09-14T23:18:51.560Z,7.80
2018-09-14T23:23:56.282Z,8.43
2018-09-14T23:29:01.588Z,7.47
2018-09-14T23:34:06.255Z,8.68
2018-09-14T23:39:11.866Z,8.73
2018-09-14T23:44:16.288Z,9.93
2018-09-14T23:49:20.711Z,11.63
2018-09-14T23:54:25.306Z,10.63
2018-09-14T23:59:30.453Z,9.05
